sensor_id;sensor_type;location;lat;lon;timestamp;P1;durP1;ratioP1;P2;durP2;ratioP2
4839;SDS011;2434;48.486;7.964;2023-06-24T00:01:06;6.67;;;3.70;;
4839;SDS011;2434;48.486;7.964;2023-06-24T00:03:35;5.60;;;4.27;;
4839;SDS011;2434;48.486;7.964;2023-06-24T00:06:06;4.87;;;4.20;;
4839;SDS011;2434;48.486;7.964;2023-06-24T00:08:35;5.23;;;3.77;;
4839;SDS011;2434;48.486;7.964;2023-06-24T00:11:03;10.90;;;3.57;;
4839;SDS011;2434;48.486;7.964;2023-06-24T00:13:32;5.30;;;4.27;;
4839;SDS011;2434;48.486;7.964;2023-06-24T00:16:00;4.73;;;3.50;;
4839;SDS011;2434;48.486;7.964;2023-06-24T00:18:28;4.30;;;3.27;;
4839;SDS011;2434;48.486;7.964;2023-06-24T00:20:57;5.17;;;3.50;;
4839;SDS011;2434;48.486;7.964;2023-06-24T00:23:27;6.10;;;3.33;;
4839;SDS011;2434;48.486;7.964;2023-06-24T00:25:57;5.17;;;3.40;;
4839;SDS011;2434;48.486;7.964;2023-06-24T00:28:25;6.03;;;3.70;;
4839;SDS011;2434;48.486;7.964;2023-06-24T00:30:54;8.30;;;4.60;;
4839;SDS011;2434;48.486;7.964;2023-06-24T00:33:22;4.37;;;3.53;;
4839;SDS011;2434;48.486;7.964;2023-06-24T00:35:50;4.50;;;3.70;;
4839;SDS011;2434;48.486;7.964;2023-06-24T00:38:18;5.47;;;3.70;;
4839;SDS011;2434;48.486;7.964;2023-06-24T00:40:48;4.83;;;3.93;;
4839;SDS011;2434;48.486;7.964;2023-06-24T00:43:17;7.00;;;4.20;;
4839;SDS011;2434;48.486;7.964;2023-06-24T00:45:46;6.37;;;4.00;;
4839;SDS011;2434;48.486;7.964;2023-06-24T00:48:15;4.60;;;3.77;;
4839;SDS011;2434;48.486;7.964;2023-06-24T00:50:44;5.27;;;3.60;;
4839;SDS011;2434;48.486;7.964;2023-06-24T00:53:12;5.00;;;3.90;;
4839;SDS011;2434;48.486;7.964;2023-06-24T00:55:40;14.33;;;4.07;;
4839;SDS011;2434;48.486;7.964;2023-06-24T00:58:10;4.77;;;3.80;;
4839;SDS011;2434;48.486;7.964;2023-06-24T01:00:42;5.77;;;3.77;;
4839;SDS011;2434;48.486;7.964;2023-06-24T01:03:12;5.13;;;4.10;;
4839;SDS011;2434;48.486;7.964;2023-06-24T01:05:41;5.93;;;3.40;;
4839;SDS011;2434;48.486;7.964;2023-06-24T01:08:10;12.33;;;3.97;;
4839;SDS011;2434;48.486;7.964;2023-06-24T01:10:44;7.13;;;3.77;;
4839;SDS011;2434;48.486;7.964;2023-06-24T01:13:14;4.63;;;3.67;;
4839;SDS011;2434;48.486;7.964;2023-06-24T01:15:42;4.30;;;3.33;;
4839;SDS011;2434;48.486;7.964;2023-06-24T01:18:11;9.60;;;3.43;;
4839;SDS011;2434;48.486;7.964;2023-06-24T01:20:49;6.23;;;4.00;;
4839;SDS011;2434;48.486;7.964;2023-06-24T01:23:27;6.13;;;4.00;;
4839;SDS011;2434;48.486;7.964;2023-06-24T01:26:34;11.33;;;3.60;;
4839;SDS011;2434;48.486;7.964;2023-06-24T01:29:32;5.80;;;3.80;;
4839;SDS011;2434;48.486;7.964;2023-06-24T01:32:14;4.70;;;3.67;;
4839;SDS011;2434;48.486;7.964;2023-06-24T01:34:52;4.90;;;3.50;;
4839;SDS011;2434;48.486;7.964;2023-06-24T01:37:25;5.90;;;3.77;;
4839;SDS011;2434;48.486;7.964;2023-06-24T01:39:57;4.83;;;3.63;;
4839;SDS011;2434;48.486;7.964;2023-06-24T01:42:38;9.50;;;3.77;;
4839;SDS011;2434;48.486;7.964;2023-06-24T01:45:09;5.57;;;4.10;;
4839;SDS011;2434;48.486;7.964;2023-06-24T01:47:43;7.33;;;3.97;;
4839;SDS011;2434;48.486;7.964;2023-06-24T01:50:15;5.83;;;3.70;;
4839;SDS011;2434;48.486;7.964;2023-06-24T01:52:48;4.50;;;4.00;;
4839;SDS011;2434;48.486;7.964;2023-06-24T01:55:20;7.90;;;4.10;;
4839;SDS011;2434;48.486;7.964;2023-06-24T01:57:51;4.03;;;3.40;;
4839;SDS011;2434;48.486;7.964;2023-06-24T02:00:20;6.70;;;3.63;;
4839;SDS011;2434;48.486;7.964;2023-06-24T02:02:52;5.80;;;3.47;;
4839;SDS011;2434;48.486;7.964;2023-06-24T02:05:22;11.10;;;4.13;;
4839;SDS011;2434;48.486;7.964;2023-06-24T02:07:52;5.87;;;3.60;;
4839;SDS011;2434;48.486;7.964;2023-06-24T02:10:21;9.33;;;4.37;;
4839;SDS011;2434;48.486;7.964;2023-06-24T02:12:51;5.33;;;4.30;;
4839;SDS011;2434;48.486;7.964;2023-06-24T02:15:21;6.40;;;4.10;;
4839;SDS011;2434;48.486;7.964;2023-06-24T02:17:52;6.73;;;3.90;;
4839;SDS011;2434;48.486;7.964;2023-06-24T02:20:23;4.63;;;3.93;;
4839;SDS011;2434;48.486;7.964;2023-06-24T02:22:54;7.70;;;4.50;;
4839;SDS011;2434;48.486;7.964;2023-06-24T02:25:26;6.60;;;3.60;;
4839;SDS011;2434;48.486;7.964;2023-06-24T02:27:56;5.90;;;4.10;;
4839;SDS011;2434;48.486;7.964;2023-06-24T02:30:25;7.03;;;3.83;;
4839;SDS011;2434;48.486;7.964;2023-06-24T02:32:56;5.03;;;3.47;;
4839;SDS011;2434;48.486;7.964;2023-06-24T02:35:24;5.57;;;3.70;;
4839;SDS011;2434;48.486;7.964;2023-06-24T02:37:53;6.30;;;4.27;;
4839;SDS011;2434;48.486;7.964;2023-06-24T02:40:21;7.40;;;4.20;;
4839;SDS011;2434;48.486;7.964;2023-06-24T02:42:49;6.47;;;4.20;;
4839;SDS011;2434;48.486;7.964;2023-06-24T02:45:18;5.13;;;4.23;;
4839;SDS011;2434;48.486;7.964;2023-06-24T02:47:46;7.83;;;4.73;;
4839;SDS011;2434;48.486;7.964;2023-06-24T02:50:17;4.00;;;3.60;;
4839;SDS011;2434;48.486;7.964;2023-06-24T02:52:47;7.23;;;4.50;;
4839;SDS011;2434;48.486;7.964;2023-06-24T02:55:18;4.73;;;3.83;;
4839;SDS011;2434;48.486;7.964;2023-06-24T02:57:58;7.80;;;4.63;;
4839;SDS011;2434;48.486;7.964;2023-06-24T03:00:46;13.00;;;4.23;;
4839;SDS011;2434;48.486;7.964;2023-06-24T03:03:31;8.13;;;3.70;;
4839;SDS011;2434;48.486;7.964;2023-06-24T03:06:01;5.40;;;3.30;;
4839;SDS011;2434;48.486;7.964;2023-06-24T03:08:30;10.83;;;3.80;;
4839;SDS011;2434;48.486;7.964;2023-06-24T03:10:59;5.20;;;4.20;;
4839;SDS011;2434;48.486;7.964;2023-06-24T03:13:29;5.50;;;3.67;;
4839;SDS011;2434;48.486;7.964;2023-06-24T03:16:04;6.47;;;3.70;;
4839;SDS011;2434;48.486;7.964;2023-06-24T03:18:46;4.87;;;4.10;;
4839;SDS011;2434;48.486;7.964;2023-06-24T03:21:17;7.53;;;4.07;;
4839;SDS011;2434;48.486;7.964;2023-06-24T03:23:46;6.30;;;3.73;;
4839;SDS011;2434;48.486;7.964;2023-06-24T03:26:15;5.40;;;4.77;;
4839;SDS011;2434;48.486;7.964;2023-06-24T03:28:44;5.37;;;3.73;;
4839;SDS011;2434;48.486;7.964;2023-06-24T03:31:15;7.50;;;4.77;;
4839;SDS011;2434;48.486;7.964;2023-06-24T03:33:44;6.20;;;4.67;;
4839;SDS011;2434;48.486;7.964;2023-06-24T03:36:16;6.83;;;4.97;;
4839;SDS011;2434;48.486;7.964;2023-06-24T03:38:44;5.40;;;3.87;;
4839;SDS011;2434;48.486;7.964;2023-06-24T03:41:13;6.50;;;5.30;;
4839;SDS011;2434;48.486;7.964;2023-06-24T03:43:41;5.70;;;4.20;;
4839;SDS011;2434;48.486;7.964;2023-06-24T03:46:11;9.07;;;4.50;;
4839;SDS011;2434;48.486;7.964;2023-06-24T03:48:40;5.50;;;4.70;;
4839;SDS011;2434;48.486;7.964;2023-06-24T03:51:09;5.93;;;4.43;;
4839;SDS011;2434;48.486;7.964;2023-06-24T03:53:39;8.80;;;4.23;;
4839;SDS011;2434;48.486;7.964;2023-06-24T03:56:07;5.10;;;3.20;;
4839;SDS011;2434;48.486;7.964;2023-06-24T03:58:36;8.50;;;4.33;;
4839;SDS011;2434;48.486;7.964;2023-06-24T04:01:04;7.60;;;4.43;;
4839;SDS011;2434;48.486;7.964;2023-06-24T04:03:32;6.13;;;3.83;;
4839;SDS011;2434;48.486;7.964;2023-06-24T04:06:00;7.27;;;4.50;;
4839;SDS011;2434;48.486;7.964;2023-06-24T04:08:29;5.60;;;4.57;;
4839;SDS011;2434;48.486;7.964;2023-06-24T04:11:00;5.20;;;4.20;;
4839;SDS011;2434;48.486;7.964;2023-06-24T04:13:30;5.27;;;4.07;;
4839;SDS011;2434;48.486;7.964;2023-06-24T04:16:01;4.67;;;3.83;;
4839;SDS011;2434;48.486;7.964;2023-06-24T04:18:29;5.97;;;4.60;;
4839;SDS011;2434;48.486;7.964;2023-06-24T04:20:57;5.63;;;4.30;;
4839;SDS011;2434;48.486;7.964;2023-06-24T04:23:25;5.10;;;3.60;;
4839;SDS011;2434;48.486;7.964;2023-06-24T04:25:54;6.97;;;4.33;;
4839;SDS011;2434;48.486;7.964;2023-06-24T04:28:23;6.80;;;4.70;;
4839;SDS011;2434;48.486;7.964;2023-06-24T04:30:52;6.93;;;4.20;;
4839;SDS011;2434;48.486;7.964;2023-06-24T04:33:20;6.33;;;4.70;;
4839;SDS011;2434;48.486;7.964;2023-06-24T04:35:49;7.20;;;4.50;;
4839;SDS011;2434;48.486;7.964;2023-06-24T04:38:20;7.40;;;4.70;;
4839;SDS011;2434;48.486;7.964;2023-06-24T04:40:49;7.03;;;4.70;;
4839;SDS011;2434;48.486;7.964;2023-06-24T04:43:18;7.23;;;4.43;;
4839;SDS011;2434;48.486;7.964;2023-06-24T04:45:47;7.70;;;4.30;;
4839;SDS011;2434;48.486;7.964;2023-06-24T04:48:16;6.40;;;4.90;;
4839;SDS011;2434;48.486;7.964;2023-06-24T04:50:44;6.33;;;4.30;;
4839;SDS011;2434;48.486;7.964;2023-06-24T04:53:12;5.47;;;4.30;;
4839;SDS011;2434;48.486;7.964;2023-06-24T04:55:40;5.33;;;4.30;;
4839;SDS011;2434;48.486;7.964;2023-06-24T04:58:09;6.50;;;4.53;;
4839;SDS011;2434;48.486;7.964;2023-06-24T05:00:37;5.43;;;4.60;;
4839;SDS011;2434;48.486;7.964;2023-06-24T05:03:07;6.57;;;4.80;;
4839;SDS011;2434;48.486;7.964;2023-06-24T05:05:36;6.30;;;4.20;;
4839;SDS011;2434;48.486;7.964;2023-06-24T05:08:04;5.17;;;4.20;;
4839;SDS011;2434;48.486;7.964;2023-06-24T05:10:32;11.30;;;5.00;;
4839;SDS011;2434;48.486;7.964;2023-06-24T05:13:01;6.03;;;5.07;;
4839;SDS011;2434;48.486;7.964;2023-06-24T05:15:29;5.10;;;4.10;;
4839;SDS011;2434;48.486;7.964;2023-06-24T05:17:57;7.30;;;4.67;;
4839;SDS011;2434;48.486;7.964;2023-06-24T05:20:27;5.97;;;4.30;;
4839;SDS011;2434;48.486;7.964;2023-06-24T05:22:55;12.70;;;4.60;;
4839;SDS011;2434;48.486;7.964;2023-06-24T05:25:23;5.80;;;4.70;;
4839;SDS011;2434;48.486;7.964;2023-06-24T05:27:51;6.17;;;4.37;;
4839;SDS011;2434;48.486;7.964;2023-06-24T05:30:20;6.40;;;4.53;;
4839;SDS011;2434;48.486;7.964;2023-06-24T05:32:48;9.33;;;4.37;;
4839;SDS011;2434;48.486;7.964;2023-06-24T05:35:16;7.13;;;4.73;;
4839;SDS011;2434;48.486;7.964;2023-06-24T05:37:46;5.93;;;5.20;;
4839;SDS011;2434;48.486;7.964;2023-06-24T05:40:14;5.57;;;4.73;;
4839;SDS011;2434;48.486;7.964;2023-06-24T05:42:43;8.80;;;5.30;;
4839;SDS011;2434;48.486;7.964;2023-06-24T05:45:11;9.27;;;6.13;;
4839;SDS011;2434;48.486;7.964;2023-06-24T05:47:40;6.90;;;5.40;;
4839;SDS011;2434;48.486;7.964;2023-06-24T05:50:09;13.60;;;6.33;;
4839;SDS011;2434;48.486;7.964;2023-06-24T05:52:38;5.10;;;4.30;;
4839;SDS011;2434;48.486;7.964;2023-06-24T05:55:08;6.13;;;5.03;;
4839;SDS011;2434;48.486;7.964;2023-06-24T05:57:36;7.17;;;4.90;;
4839;SDS011;2434;48.486;7.964;2023-06-24T06:00:05;7.57;;;5.40;;
4839;SDS011;2434;48.486;7.964;2023-06-24T06:02:40;7.70;;;5.43;;
4839;SDS011;2434;48.486;7.964;2023-06-24T06:05:09;7.10;;;4.60;;
4839;SDS011;2434;48.486;7.964;2023-06-24T06:07:37;6.70;;;5.67;;
4839;SDS011;2434;48.486;7.964;2023-06-24T06:10:08;5.83;;;4.47;;
4839;SDS011;2434;48.486;7.964;2023-06-24T06:12:37;9.23;;;5.27;;
4839;SDS011;2434;48.486;7.964;2023-06-24T06:15:05;11.47;;;5.40;;
4839;SDS011;2434;48.486;7.964;2023-06-24T06:17:34;11.53;;;5.57;;
4839;SDS011;2434;48.486;7.964;2023-06-24T06:20:03;7.83;;;4.90;;
4839;SDS011;2434;48.486;7.964;2023-06-24T06:22:32;6.80;;;4.70;;
4839;SDS011;2434;48.486;7.964;2023-06-24T06:25:04;5.97;;;4.90;;
4839;SDS011;2434;48.486;7.964;2023-06-24T06:27:35;6.93;;;5.30;;
4839;SDS011;2434;48.486;7.964;2023-06-24T06:30:03;9.10;;;5.70;;
4839;SDS011;2434;48.486;7.964;2023-06-24T06:32:32;9.87;;;5.63;;
4839;SDS011;2434;48.486;7.964;2023-06-24T06:35:00;7.70;;;5.90;;
4839;SDS011;2434;48.486;7.964;2023-06-24T06:37:29;8.40;;;5.70;;
4839;SDS011;2434;48.486;7.964;2023-06-24T06:39:57;10.43;;;6.87;;
4839;SDS011;2434;48.486;7.964;2023-06-24T06:42:26;11.40;;;5.43;;
4839;SDS011;2434;48.486;7.964;2023-06-24T06:44:56;8.47;;;5.20;;
4839;SDS011;2434;48.486;7.964;2023-06-24T06:47:24;8.40;;;5.60;;
4839;SDS011;2434;48.486;7.964;2023-06-24T06:49:53;14.87;;;6.30;;
4839;SDS011;2434;48.486;7.964;2023-06-24T06:52:21;6.33;;;4.97;;
4839;SDS011;2434;48.486;7.964;2023-06-24T06:54:49;8.07;;;5.90;;
4839;SDS011;2434;48.486;7.964;2023-06-24T06:57:18;7.97;;;5.47;;
4839;SDS011;2434;48.486;7.964;2023-06-24T06:59:46;7.90;;;5.70;;
4839;SDS011;2434;48.486;7.964;2023-06-24T07:02:17;7.43;;;5.60;;
4839;SDS011;2434;48.486;7.964;2023-06-24T07:04:46;7.50;;;5.70;;
4839;SDS011;2434;48.486;7.964;2023-06-24T07:07:14;6.27;;;5.00;;
4839;SDS011;2434;48.486;7.964;2023-06-24T07:09:43;5.33;;;4.63;;
4839;SDS011;2434;48.486;7.964;2023-06-24T07:12:13;8.60;;;5.40;;
4839;SDS011;2434;48.486;7.964;2023-06-24T07:14:41;6.73;;;4.90;;
4839;SDS011;2434;48.486;7.964;2023-06-24T07:17:09;6.90;;;5.53;;
4839;SDS011;2434;48.486;7.964;2023-06-24T07:19:39;5.90;;;4.53;;
4839;SDS011;2434;48.486;7.964;2023-06-24T07:22:07;5.67;;;4.70;;
4839;SDS011;2434;48.486;7.964;2023-06-24T07:24:36;5.43;;;4.10;;
4839;SDS011;2434;48.486;7.964;2023-06-24T07:27:04;6.37;;;4.73;;
4839;SDS011;2434;48.486;7.964;2023-06-24T07:29:33;9.47;;;5.53;;
4839;SDS011;2434;48.486;7.964;2023-06-24T07:32:02;7.17;;;5.27;;
4839;SDS011;2434;48.486;7.964;2023-06-24T07:34:30;10.77;;;5.10;;
4839;SDS011;2434;48.486;7.964;2023-06-24T07:37:00;8.50;;;5.10;;
4839;SDS011;2434;48.486;7.964;2023-06-24T07:39:44;8.53;;;5.60;;
4839;SDS011;2434;48.486;7.964;2023-06-24T07:42:13;7.60;;;4.50;;
4839;SDS011;2434;48.486;7.964;2023-06-24T07:44:45;8.60;;;4.80;;
4839;SDS011;2434;48.486;7.964;2023-06-24T07:47:13;8.53;;;5.70;;
4839;SDS011;2434;48.486;7.964;2023-06-24T07:49:42;8.30;;;4.27;;
4839;SDS011;2434;48.486;7.964;2023-06-24T07:52:11;8.80;;;4.87;;
4839;SDS011;2434;48.486;7.964;2023-06-24T07:54:40;7.60;;;4.77;;
4839;SDS011;2434;48.486;7.964;2023-06-24T07:57:09;10.70;;;5.20;;
4839;SDS011;2434;48.486;7.964;2023-06-24T07:59:37;7.97;;;5.87;;
4839;SDS011;2434;48.486;7.964;2023-06-24T08:02:06;7.83;;;5.30;;
4839;SDS011;2434;48.486;7.964;2023-06-24T08:04:34;5.90;;;5.20;;
4839;SDS011;2434;48.486;7.964;2023-06-24T08:07:03;6.30;;;5.03;;
4839;SDS011;2434;48.486;7.964;2023-06-24T08:09:33;7.93;;;5.03;;
4839;SDS011;2434;48.486;7.964;2023-06-24T08:12:02;7.60;;;5.57;;
4839;SDS011;2434;48.486;7.964;2023-06-24T08:14:31;6.97;;;5.20;;
4839;SDS011;2434;48.486;7.964;2023-06-24T08:16:59;6.70;;;4.77;;
4839;SDS011;2434;48.486;7.964;2023-06-24T08:19:28;7.47;;;5.50;;
4839;SDS011;2434;48.486;7.964;2023-06-24T08:21:56;6.43;;;5.30;;
4839;SDS011;2434;48.486;7.964;2023-06-24T08:24:24;6.77;;;4.63;;
4839;SDS011;2434;48.486;7.964;2023-06-24T08:26:54;8.13;;;5.63;;
4839;SDS011;2434;48.486;7.964;2023-06-24T08:29:22;7.27;;;4.90;;
4839;SDS011;2434;48.486;7.964;2023-06-24T08:32:09;6.10;;;5.23;;
4839;SDS011;2434;48.486;7.964;2023-06-24T08:35:14;7.37;;;5.40;;
4839;SDS011;2434;48.486;7.964;2023-06-24T08:37:42;10.53;;;5.30;;
4839;SDS011;2434;48.486;7.964;2023-06-24T08:40:13;8.80;;;6.10;;
4839;SDS011;2434;48.486;7.964;2023-06-24T08:42:44;7.60;;;5.63;;
4839;SDS011;2434;48.486;7.964;2023-06-24T08:45:12;8.13;;;5.77;;
4839;SDS011;2434;48.486;7.964;2023-06-24T08:47:41;12.53;;;5.83;;
4839;SDS011;2434;48.486;7.964;2023-06-24T08:50:11;7.60;;;5.73;;
4839;SDS011;2434;48.486;7.964;2023-06-24T08:52:42;8.07;;;5.07;;
4839;SDS011;2434;48.486;7.964;2023-06-24T08:55:13;6.47;;;4.63;;
4839;SDS011;2434;48.486;7.964;2023-06-24T08:57:47;6.10;;;4.97;;
4839;SDS011;2434;48.486;7.964;2023-06-24T09:00:16;6.07;;;5.27;;
4839;SDS011;2434;48.486;7.964;2023-06-24T09:02:45;5.80;;;4.73;;
4839;SDS011;2434;48.486;7.964;2023-06-24T09:05:13;8.37;;;6.30;;
4839;SDS011;2434;48.486;7.964;2023-06-24T09:07:42;8.73;;;4.87;;
4839;SDS011;2434;48.486;7.964;2023-06-24T09:10:10;6.50;;;4.83;;
4839;SDS011;2434;48.486;7.964;2023-06-24T09:12:57;6.70;;;4.70;;
4839;SDS011;2434;48.486;7.964;2023-06-24T09:15:29;8.03;;;5.00;;
4839;SDS011;2434;48.486;7.964;2023-06-24T09:17:58;8.47;;;6.10;;
4839;SDS011;2434;48.486;7.964;2023-06-24T09:20:27;7.03;;;5.33;;
4839;SDS011;2434;48.486;7.964;2023-06-24T09:23:00;6.67;;;5.50;;
4839;SDS011;2434;48.486;7.964;2023-06-24T09:25:29;6.10;;;5.20;;
4839;SDS011;2434;48.486;7.964;2023-06-24T09:28:00;6.33;;;5.50;;
4839;SDS011;2434;48.486;7.964;2023-06-24T09:30:28;7.73;;;5.50;;
4839;SDS011;2434;48.486;7.964;2023-06-24T09:32:56;7.30;;;4.93;;
4839;SDS011;2434;48.486;7.964;2023-06-24T09:35:25;8.80;;;4.43;;
4839;SDS011;2434;48.486;7.964;2023-06-24T09:37:54;12.00;;;5.10;;
4839;SDS011;2434;48.486;7.964;2023-06-24T09:40:26;7.70;;;5.33;;
4839;SDS011;2434;48.486;7.964;2023-06-24T09:42:55;5.37;;;4.43;;
4839;SDS011;2434;48.486;7.964;2023-06-24T09:45:26;6.27;;;4.77;;
4839;SDS011;2434;48.486;7.964;2023-06-24T09:47:56;4.50;;;3.90;;
4839;SDS011;2434;48.486;7.964;2023-06-24T09:50:25;4.50;;;3.77;;
4839;SDS011;2434;48.486;7.964;2023-06-24T09:52:54;7.90;;;4.50;;
4839;SDS011;2434;48.486;7.964;2023-06-24T09:55:25;8.53;;;4.30;;
4839;SDS011;2434;48.486;7.964;2023-06-24T09:57:55;8.20;;;4.00;;
4839;SDS011;2434;48.486;7.964;2023-06-24T10:00:24;6.43;;;4.33;;
4839;SDS011;2434;48.486;7.964;2023-06-24T10:02:54;6.10;;;4.60;;
4839;SDS011;2434;48.486;7.964;2023-06-24T10:05:26;6.03;;;5.00;;
4839;SDS011;2434;48.486;7.964;2023-06-24T10:07:55;7.10;;;4.70;;
4839;SDS011;2434;48.486;7.964;2023-06-24T10:10:23;6.53;;;3.97;;
4839;SDS011;2434;48.486;7.964;2023-06-24T10:12:51;7.53;;;4.27;;
4839;SDS011;2434;48.486;7.964;2023-06-24T10:15:19;5.57;;;4.10;;
4839;SDS011;2434;48.486;7.964;2023-06-24T10:17:51;5.40;;;4.30;;
4839;SDS011;2434;48.486;7.964;2023-06-24T10:20:40;6.03;;;4.17;;
4839;SDS011;2434;48.486;7.964;2023-06-24T10:23:08;7.00;;;4.30;;
4839;SDS011;2434;48.486;7.964;2023-06-24T10:25:36;4.73;;;3.53;;
4839;SDS011;2434;48.486;7.964;2023-06-24T10:28:05;7.30;;;4.37;;
4839;SDS011;2434;48.486;7.964;2023-06-24T10:30:33;6.90;;;4.03;;
4839;SDS011;2434;48.486;7.964;2023-06-24T10:33:05;6.23;;;3.90;;
4839;SDS011;2434;48.486;7.964;2023-06-24T10:35:41;5.93;;;4.03;;
4839;SDS011;2434;48.486;7.964;2023-06-24T10:38:10;5.60;;;3.90;;
4839;SDS011;2434;48.486;7.964;2023-06-24T10:40:39;3.87;;;3.47;;
4839;SDS011;2434;48.486;7.964;2023-06-24T10:43:25;5.93;;;3.50;;
4839;SDS011;2434;48.486;7.964;2023-06-24T10:45:56;5.13;;;3.80;;
4839;SDS011;2434;48.486;7.964;2023-06-24T10:48:27;4.33;;;3.53;;
4839;SDS011;2434;48.486;7.964;2023-06-24T10:50:55;3.70;;;3.30;;
4839;SDS011;2434;48.486;7.964;2023-06-24T10:53:24;4.67;;;3.80;;
4839;SDS011;2434;48.486;7.964;2023-06-24T10:55:52;8.80;;;3.93;;
4839;SDS011;2434;48.486;7.964;2023-06-24T10:58:25;5.37;;;3.90;;
4839;SDS011;2434;48.486;7.964;2023-06-24T11:00:53;4.47;;;3.67;;
4839;SDS011;2434;48.486;7.964;2023-06-24T11:03:35;6.60;;;3.80;;
4839;SDS011;2434;48.486;7.964;2023-06-24T11:06:04;5.40;;;4.20;;
4839;SDS011;2434;48.486;7.964;2023-06-24T11:08:32;4.30;;;3.87;;
4839;SDS011;2434;48.486;7.964;2023-06-24T11:11:00;4.17;;;3.77;;
4839;SDS011;2434;48.486;7.964;2023-06-24T11:13:33;5.57;;;3.90;;
4839;SDS011;2434;48.486;7.964;2023-06-24T11:16:01;4.40;;;4.00;;
4839;SDS011;2434;48.486;7.964;2023-06-24T11:18:37;5.03;;;4.27;;
4839;SDS011;2434;48.486;7.964;2023-06-24T11:21:08;6.60;;;4.30;;
4839;SDS011;2434;48.486;7.964;2023-06-24T11:23:36;4.27;;;3.87;;
4839;SDS011;2434;48.486;7.964;2023-06-24T11:26:06;5.70;;;3.80;;
4839;SDS011;2434;48.486;7.964;2023-06-24T11:28:34;6.10;;;3.93;;
4839;SDS011;2434;48.486;7.964;2023-06-24T11:31:05;5.90;;;4.17;;
4839;SDS011;2434;48.486;7.964;2023-06-24T11:33:34;5.30;;;4.03;;
4839;SDS011;2434;48.486;7.964;2023-06-24T11:36:09;4.40;;;3.87;;
4839;SDS011;2434;48.486;7.964;2023-06-24T11:38:38;6.40;;;4.53;;
4839;SDS011;2434;48.486;7.964;2023-06-24T11:41:07;6.93;;;4.47;;
4839;SDS011;2434;48.486;7.964;2023-06-24T11:43:35;4.07;;;3.60;;
4839;SDS011;2434;48.486;7.964;2023-06-24T11:46:03;5.90;;;4.07;;
4839;SDS011;2434;48.486;7.964;2023-06-24T11:48:38;6.23;;;3.97;;
4839;SDS011;2434;48.486;7.964;2023-06-24T11:51:13;7.77;;;4.37;;
4839;SDS011;2434;48.486;7.964;2023-06-24T11:53:41;5.20;;;4.20;;
4839;SDS011;2434;48.486;7.964;2023-06-24T11:56:12;5.37;;;4.00;;
4839;SDS011;2434;48.486;7.964;2023-06-24T11:58:42;4.87;;;3.70;;
4839;SDS011;2434;48.486;7.964;2023-06-24T12:01:10;8.87;;;4.23;;
4839;SDS011;2434;48.486;7.964;2023-06-24T12:03:40;4.73;;;3.70;;
4839;SDS011;2434;48.486;7.964;2023-06-24T12:06:09;6.47;;;3.90;;
4839;SDS011;2434;48.486;7.964;2023-06-24T12:08:39;5.13;;;3.70;;
4839;SDS011;2434;48.486;7.964;2023-06-24T12:11:17;4.63;;;3.40;;
4839;SDS011;2434;48.486;7.964;2023-06-24T12:13:46;4.40;;;3.67;;
4839;SDS011;2434;48.486;7.964;2023-06-24T12:16:14;6.03;;;3.90;;
4839;SDS011;2434;48.486;7.964;2023-06-24T12:18:42;5.47;;;3.70;;
4839;SDS011;2434;48.486;7.964;2023-06-24T12:21:11;4.57;;;3.70;;
4839;SDS011;2434;48.486;7.964;2023-06-24T12:23:41;6.33;;;3.33;;
4839;SDS011;2434;48.486;7.964;2023-06-24T12:26:10;5.20;;;3.50;;
4839;SDS011;2434;48.486;7.964;2023-06-24T12:28:38;4.97;;;3.33;;
4839;SDS011;2434;48.486;7.964;2023-06-24T12:31:07;6.27;;;3.80;;
4839;SDS011;2434;48.486;7.964;2023-06-24T12:33:35;5.63;;;3.67;;
4839;SDS011;2434;48.486;7.964;2023-06-24T12:36:04;6.00;;;3.70;;
4839;SDS011;2434;48.486;7.964;2023-06-24T12:38:32;5.13;;;2.87;;
4839;SDS011;2434;48.486;7.964;2023-06-24T12:41:04;5.60;;;3.57;;
4839;SDS011;2434;48.486;7.964;2023-06-24T12:43:32;6.50;;;3.80;;
4839;SDS011;2434;48.486;7.964;2023-06-24T12:46:00;5.10;;;3.30;;
4839;SDS011;2434;48.486;7.964;2023-06-24T12:48:29;6.00;;;4.00;;
4839;SDS011;2434;48.486;7.964;2023-06-24T12:50:57;4.60;;;3.53;;
4839;SDS011;2434;48.486;7.964;2023-06-24T12:53:26;6.10;;;3.97;;
4839;SDS011;2434;48.486;7.964;2023-06-24T12:55:55;5.13;;;3.70;;
4839;SDS011;2434;48.486;7.964;2023-06-24T12:58:24;4.43;;;3.57;;
4839;SDS011;2434;48.486;7.964;2023-06-24T13:00:53;4.20;;;3.77;;
4839;SDS011;2434;48.486;7.964;2023-06-24T13:03:22;5.80;;;4.20;;
4839;SDS011;2434;48.486;7.964;2023-06-24T13:05:50;4.53;;;3.37;;
4839;SDS011;2434;48.486;7.964;2023-06-24T13:08:18;4.50;;;3.93;;
4839;SDS011;2434;48.486;7.964;2023-06-24T13:10:47;5.17;;;3.43;;
4839;SDS011;2434;48.486;7.964;2023-06-24T13:13:15;5.27;;;3.20;;
4839;SDS011;2434;48.486;7.964;2023-06-24T13:15:45;4.90;;;3.83;;
4839;SDS011;2434;48.486;7.964;2023-06-24T13:18:14;5.70;;;4.10;;
4839;SDS011;2434;48.486;7.964;2023-06-24T13:20:42;4.10;;;2.67;;
4839;SDS011;2434;48.486;7.964;2023-06-24T13:23:11;6.37;;;3.53;;
4839;SDS011;2434;48.486;7.964;2023-06-24T13:25:39;4.90;;;3.40;;
4839;SDS011;2434;48.486;7.964;2023-06-24T13:28:08;4.87;;;2.73;;
4839;SDS011;2434;48.486;7.964;2023-06-24T13:30:36;5.33;;;3.63;;
4839;SDS011;2434;48.486;7.964;2023-06-24T13:33:06;4.97;;;3.13;;
4839;SDS011;2434;48.486;7.964;2023-06-24T13:35:35;5.00;;;3.30;;
4839;SDS011;2434;48.486;7.964;2023-06-24T13:38:03;6.10;;;3.57;;
4839;SDS011;2434;48.486;7.964;2023-06-24T13:40:34;4.80;;;3.60;;
4839;SDS011;2434;48.486;7.964;2023-06-24T13:43:02;4.17;;;3.47;;
4839;SDS011;2434;48.486;7.964;2023-06-24T13:45:31;4.10;;;3.10;;
4839;SDS011;2434;48.486;7.964;2023-06-24T13:48:00;4.30;;;3.17;;
4839;SDS011;2434;48.486;7.964;2023-06-24T13:50:30;3.50;;;2.80;;
4839;SDS011;2434;48.486;7.964;2023-06-24T13:52:58;6.47;;;3.57;;
4839;SDS011;2434;48.486;7.964;2023-06-24T13:55:26;4.30;;;3.23;;
4839;SDS011;2434;48.486;7.964;2023-06-24T13:57:55;4.67;;;3.50;;
4839;SDS011;2434;48.486;7.964;2023-06-24T14:00:23;5.80;;;3.37;;
4839;SDS011;2434;48.486;7.964;2023-06-24T14:02:52;4.80;;;3.10;;
4839;SDS011;2434;48.486;7.964;2023-06-24T14:05:20;5.00;;;3.30;;
4839;SDS011;2434;48.486;7.964;2023-06-24T14:07:50;4.37;;;3.27;;
4839;SDS011;2434;48.486;7.964;2023-06-24T14:10:22;6.77;;;2.93;;
4839;SDS011;2434;48.486;7.964;2023-06-24T14:12:50;4.67;;;3.07;;
4839;SDS011;2434;48.486;7.964;2023-06-24T14:15:18;3.80;;;2.93;;
4839;SDS011;2434;48.486;7.964;2023-06-24T14:17:46;4.10;;;3.40;;
4839;SDS011;2434;48.486;7.964;2023-06-24T14:20:15;5.30;;;3.57;;
4839;SDS011;2434;48.486;7.964;2023-06-24T14:22:43;8.63;;;3.60;;
4839;SDS011;2434;48.486;7.964;2023-06-24T14:25:13;6.50;;;3.57;;
4839;SDS011;2434;48.486;7.964;2023-06-24T14:27:42;5.90;;;3.50;;
4839;SDS011;2434;48.486;7.964;2023-06-24T14:30:11;3.83;;;3.07;;
4839;SDS011;2434;48.486;7.964;2023-06-24T14:32:40;4.93;;;3.00;;
4839;SDS011;2434;48.486;7.964;2023-06-24T14:35:08;4.73;;;3.50;;
4839;SDS011;2434;48.486;7.964;2023-06-24T14:37:37;4.00;;;3.03;;
4839;SDS011;2434;48.486;7.964;2023-06-24T14:40:06;4.47;;;3.20;;
4839;SDS011;2434;48.486;7.964;2023-06-24T14:42:36;3.20;;;2.70;;
4839;SDS011;2434;48.486;7.964;2023-06-24T14:45:05;5.50;;;3.43;;
4839;SDS011;2434;48.486;7.964;2023-06-24T14:47:34;4.50;;;3.30;;
4839;SDS011;2434;48.486;7.964;2023-06-24T14:50:02;4.03;;;3.10;;
4839;SDS011;2434;48.486;7.964;2023-06-24T14:52:31;5.37;;;3.97;;
4839;SDS011;2434;48.486;7.964;2023-06-24T14:55:00;3.63;;;2.93;;
4839;SDS011;2434;48.486;7.964;2023-06-24T14:57:28;4.67;;;3.47;;
4839;SDS011;2434;48.486;7.964;2023-06-24T14:59:59;6.20;;;3.03;;
4839;SDS011;2434;48.486;7.964;2023-06-24T15:02:28;3.90;;;3.10;;
4839;SDS011;2434;48.486;7.964;2023-06-24T15:04:56;9.60;;;3.50;;
4839;SDS011;2434;48.486;7.964;2023-06-24T15:07:25;4.30;;;3.27;;
4839;SDS011;2434;48.486;7.964;2023-06-24T15:09:53;6.03;;;3.30;;
4839;SDS011;2434;48.486;7.964;2023-06-24T15:12:22;6.53;;;3.47;;
4839;SDS011;2434;48.486;7.964;2023-06-24T15:14:50;4.83;;;3.33;;
4839;SDS011;2434;48.486;7.964;2023-06-24T15:17:20;5.17;;;3.43;;
4839;SDS011;2434;48.486;7.964;2023-06-24T15:19:50;10.60;;;3.20;;
4839;SDS011;2434;48.486;7.964;2023-06-24T15:22:19;6.00;;;3.60;;
4839;SDS011;2434;48.486;7.964;2023-06-24T15:24:47;6.83;;;2.60;;
4839;SDS011;2434;48.486;7.964;2023-06-24T15:27:16;4.73;;;3.37;;
4839;SDS011;2434;48.486;7.964;2023-06-24T15:29:44;4.03;;;2.90;;
4839;SDS011;2434;48.486;7.964;2023-06-24T15:32:13;4.80;;;2.70;;